sensor_id;sensor_type;location;lat;lon;timestamp;temperature;humidity
35668;DHT22;22158;59.280;17.806;2024-02-14T00:02:16;-3.00;99.90
35668;DHT22;22158;59.280;17.806;2024-02-14T00:04:42;-2.90;99.90
35668;DHT22;22158;59.280;17.806;2024-02-14T00:07:08;-2.90;99.90
35668;DHT22;22158;59.280;17.806;2024-02-14T00:09:34;-2.90;99.90
35668;DHT22;22158;59.280;17.806;2024-02-14T00:12:00;-2.90;99.90
35668;DHT22;22158;59.280;17.806;2024-02-14T00:14:26;-2.90;99.90
35668;DHT22;22158;59.280;17.806;2024-02-14T00:16:51;-2.90;99.90
35668;DHT22;22158;59.280;17.806;2024-02-14T00:19:17;-2.90;99.90
35668;DHT22;22158;59.280;17.806;2024-02-14T00:21:43;-2.90;99.90
35668;DHT22;22158;59.280;17.806;2024-02-14T00:24:08;-2.90;99.90
35668;DHT22;22158;59.280;17.806;2024-02-14T00:26:34;-2.90;99.90
35668;DHT22;22158;59.280;17.806;2024-02-14T00:29:01;-2.90;99.90
35668;DHT22;22158;59.280;17.806;2024-02-14T00:31:26;-2.90;99.90
35668;DHT22;22158;59.280;17.806;2024-02-14T00:33:52;-2.90;99.90
35668;DHT22;22158;59.280;17.806;2024-02-14T00:36:18;-2.90;99.90
35668;DHT22;22158;59.280;17.806;2024-02-14T00:38:43;-2.90;99.90
35668;DHT22;22158;59.280;17.806;2024-02-14T00:41:11;-3.00;99.90
35668;DHT22;22158;59.280;17.806;2024-02-14T00:43:36;-3.00;99.90
35668;DHT22;22158;59.280;17.806;2024-02-14T00:46:02;-3.00;99.90
35668;DHT22;22158;59.280;17.806;2024-02-14T00:48:28;-3.10;99.90
35668;DHT22;22158;59.280;17.806;2024-02-14T00:50:53;-3.10;99.90
35668;DHT22;22158;59.280;17.806;2024-02-14T00:53:19;-3.10;99.90
35668;DHT22;22158;59.280;17.806;2024-02-14T00:55:46;-3.10;99.90
35668;DHT22;22158;59.280;17.806;2024-02-14T00:58:11;-3.10;99.90
35668;DHT22;22158;59.280;17.806;2024-02-14T01:00:37;-3.10;99.90
35668;DHT22;22158;59.280;17.806;2024-02-14T01:03:03;-3.10;99.90
35668;DHT22;22158;59.280;17.806;2024-02-14T01:05:29;-3.10;99.90
35668;DHT22;22158;59.280;17.806;2024-02-14T01:07:54;-3.10;99.90
35668;DHT22;22158;59.280;17.806;2024-02-14T01:10:20;-3.10;99.90
35668;DHT22;22158;59.280;17.806;2024-02-14T01:12:46;-3.00;99.90
35668;DHT22;22158;59.280;17.806;2024-02-14T01:15:12;-3.00;99.90
35668;DHT22;22158;59.280;17.806;2024-02-14T01:17:37;-3.00;99.90
35668;DHT22;22158;59.280;17.806;2024-02-14T01:20:05;-3.00;99.90
35668;DHT22;22158;59.280;17.806;2024-02-14T01:22:32;-3.10;99.90
35668;DHT22;22158;59.280;17.806;2024-02-14T01:24:58;-3.20;99.90
35668;DHT22;22158;59.280;17.806;2024-02-14T01:27:24;-3.20;99.90
35668;DHT22;22158;59.280;17.806;2024-02-14T01:29:50;-3.10;99.90
35668;DHT22;22158;59.280;17.806;2024-02-14T01:32:16;-3.10;99.90
35668;DHT22;22158;59.280;17.806;2024-02-14T01:34:42;-3.00;99.90
35668;DHT22;22158;59.280;17.806;2024-02-14T01:37:08;-3.00;99.90
35668;DHT22;22158;59.280;17.806;2024-02-14T01:39:35;-3.00;99.90
35668;DHT22;22158;59.280;17.806;2024-02-14T01:42:01;-3.00;99.90
35668;DHT22;22158;59.280;17.806;2024-02-14T01:44:32;-2.90;99.90
35668;DHT22;22158;59.280;17.806;2024-02-14T01:46:59;-2.90;99.90
35668;DHT22;22158;59.280;17.806;2024-02-14T01:49:25;-2.90;99.90
35668;DHT22;22158;59.280;17.806;2024-02-14T01:51:55;-2.90;99.90
35668;DHT22;22158;59.280;17.806;2024-02-14T01:54:24;-2.80;99.90
35668;DHT22;22158;59.280;17.806;2024-02-14T01:56:50;-2.80;99.90
35668;DHT22;22158;59.280;17.806;2024-02-14T01:59:16;-2.80;99.90
35668;DHT22;22158;59.280;17.806;2024-02-14T02:01:42;-2.70;99.90
35668;DHT22;22158;59.280;17.806;2024-02-14T02:04:08;-2.70;99.90
35668;DHT22;22158;59.280;17.806;2024-02-14T02:06:34;-2.70;99.90
35668;DHT22;22158;59.280;17.806;2024-02-14T02:09:00;-2.70;99.90
35668;DHT22;22158;59.280;17.806;2024-02-14T02:11:26;-2.70;99.90
35668;DHT22;22158;59.280;17.806;2024-02-14T02:13:52;-2.70;99.90
35668;DHT22;22158;59.280;17.806;2024-02-14T02:16:18;-2.70;99.90
35668;DHT22;22158;59.280;17.806;2024-02-14T02:18:45;-2.60;99.90
35668;DHT22;22158;59.280;17.806;2024-02-14T02:21:11;-2.60;99.90
35668;DHT22;22158;59.280;17.806;2024-02-14T02:23:38;-2.60;99.90
35668;DHT22;22158;59.280;17.806;2024-02-14T02:26:06;-2.60;99.90
35668;DHT22;22158;59.280;17.806;2024-02-14T02:28:31;-2.60;99.90
35668;DHT22;22158;59.280;17.806;2024-02-14T02:30:57;-2.60;99.90
35668;DHT22;22158;59.280;17.806;2024-02-14T02:33:23;-2.60;99.90
35668;DHT22;22158;59.280;17.806;2024-02-14T02:35:49;-2.60;99.90
35668;DHT22;22158;59.280;17.806;2024-02-14T02:38:16;-2.60;99.90
35668;DHT22;22158;59.280;17.806;2024-02-14T02:40:43;-2.70;99.90
35668;DHT22;22158;59.280;17.806;2024-02-14T02:43:08;-2.60;99.90
35668;DHT22;22158;59.280;17.806;2024-02-14T02:45:35;-2.60;99.90
35668;DHT22;22158;59.280;17.806;2024-02-14T02:48:01;-2.60;99.90
35668;DHT22;22158;59.280;17.806;2024-02-14T02:50:27;-2.60;99.90
35668;DHT22;22158;59.280;17.806;2024-02-14T02:52:54;-2.50;99.90
35668;DHT22;22158;59.280;17.806;2024-02-14T02:55:20;-2.50;99.90
35668;DHT22;22158;59.280;17.806;2024-02-14T02:57:46;-2.50;99.90
35668;DHT22;22158;59.280;17.806;2024-02-14T03:00:12;-2.50;99.90
35668;DHT22;22158;59.280;17.806;2024-02-14T03:02:39;-2.50;99.90
35668;DHT22;22158;59.280;17.806;2024-02-14T03:05:10;-2.50;99.90
35668;DHT22;22158;59.280;17.806;2024-02-14T03:07:45;-2.50;99.90
35668;DHT22;22158;59.280;17.806;2024-02-14T03:10:13;-2.50;99.90
35668;DHT22;22158;59.280;17.806;2024-02-14T03:12:40;-2.50;99.90
35668;DHT22;22158;59.280;17.806;2024-02-14T03:15:06;-2.50;99.90
35668;DHT22;22158;59.280;17.806;2024-02-14T03:17:35;-2.40;99.90
35668;DHT22;22158;59.280;17.806;2024-02-14T03:20:01;-2.40;99.90
35668;DHT22;22158;59.280;17.806;2024-02-14T03:22:27;-2.40;99.90
35668;DHT22;22158;59.280;17.806;2024-02-14T03:24:52;-2.30;99.90
35668;DHT22;22158;59.280;17.806;2024-02-14T03:27:18;-2.30;99.90
35668;DHT22;22158;59.280;17.806;2024-02-14T03:29:44;-2.30;99.90
35668;DHT22;22158;59.280;17.806;2024-02-14T03:32:10;-2.30;99.90
35668;DHT22;22158;59.280;17.806;2024-02-14T03:34:35;-2.30;99.90
35668;DHT22;22158;59.280;17.806;2024-02-14T03:37:02;-2.30;99.90
35668;DHT22;22158;59.280;17.806;2024-02-14T03:39:28;-2.20;99.90
35668;DHT22;22158;59.280;17.806;2024-02-14T03:41:54;-2.20;99.90
35668;DHT22;22158;59.280;17.806;2024-02-14T03:44:24;-2.10;99.90
35668;DHT22;22158;59.280;17.806;2024-02-14T03:46:50;-2.10;99.90
35668;DHT22;22158;59.280;17.806;2024-02-14T03:49:16;-2.10;99.90
35668;DHT22;22158;59.280;17.806;2024-02-14T03:51:42;-2.10;99.90
35668;DHT22;22158;59.280;17.806;2024-02-14T03:54:07;-2.20;99.90
35668;DHT22;22158;59.280;17.806;2024-02-14T03:56:33;-2.20;99.90
35668;DHT22;22158;59.280;17.806;2024-02-14T03:58:59;-2.20;99.90
35668;DHT22;22158;59.280;17.806;2024-02-14T04:01:25;-2.20;99.90
35668;DHT22;22158;59.280;17.806;2024-02-14T04:03:50;-2.20;99.90
35668;DHT22;22158;59.280;17.806;2024-02-14T04:06:16;-2.20;99.90
35668;DHT22;22158;59.280;17.806;2024-02-14T04:08:43;-2.20;99.90
35668;DHT22;22158;59.280;17.806;2024-02-14T04:11:09;-2.10;99.90
35668;DHT22;22158;59.280;17.806;2024-02-14T04:13:35;-2.10;99.90
35668;DHT22;22158;59.280;17.806;2024-02-14T04:16:01;-2.00;99.90
35668;DHT22;22158;59.280;17.806;2024-02-14T04:18:26;-2.00;99.90
35668;DHT22;22158;59.280;17.806;2024-02-14T04:20:52;-1.90;99.90
35668;DHT22;22158;59.280;17.806;2024-02-14T04:23:18;-1.90;99.90
35668;DHT22;22158;59.280;17.806;2024-02-14T04:25:44;-1.90;99.90
35668;DHT22;22158;59.280;17.806;2024-02-14T04:28:10;-1.90;99.90
35668;DHT22;22158;59.280;17.806;2024-02-14T04:30:37;-1.90;99.90
35668;DHT22;22158;59.280;17.806;2024-02-14T04:33:04;-1.90;99.90
35668;DHT22;22158;59.280;17.806;2024-02-14T04:35:30;-1.90;99.90
35668;DHT22;22158;59.280;17.806;2024-02-14T04:37:56;-1.90;99.90
35668;DHT22;22158;59.280;17.806;2024-02-14T04:40:22;-1.80;99.90
35668;DHT22;22158;59.280;17.806;2024-02-14T04:42:48;-1.80;99.90
35668;DHT22;22158;59.280;17.806;2024-02-14T04:45:14;-1.80;99.90
35668;DHT22;22158;59.280;17.806;2024-02-14T04:47:40;-1.80;99.90
35668;DHT22;22158;59.280;17.806;2024-02-14T04:50:05;-1.80;99.90
35668;DHT22;22158;59.280;17.806;2024-02-14T04:52:31;-1.80;99.90
35668;DHT22;22158;59.280;17.806;2024-02-14T04:54:57;-1.80;99.90
35668;DHT22;22158;59.280;17.806;2024-02-14T04:57:23;-1.80;99.90
35668;DHT22;22158;59.280;17.806;2024-02-14T04:59:48;-1.80;99.90
35668;DHT22;22158;59.280;17.806;2024-02-14T05:02:14;-1.80;99.90
35668;DHT22;22158;59.280;17.806;2024-02-14T05:04:40;-1.80;99.90
35668;DHT22;22158;59.280;17.806;2024-02-14T05:07:06;-1.80;99.90
35668;DHT22;22158;59.280;17.806;2024-02-14T05:09:32;-1.80;99.90
35668;DHT22;22158;59.280;17.806;2024-02-14T05:11:58;-1.80;99.90
35668;DHT22;22158;59.280;17.806;2024-02-14T05:14:23;-1.80;99.90
35668;DHT22;22158;59.280;17.806;2024-02-14T05:16:49;-1.90;99.90
35668;DHT22;22158;59.280;17.806;2024-02-14T05:19:15;-1.90;99.90
35668;DHT22;22158;59.280;17.806;2024-02-14T05:21:41;-1.80;99.90
35668;DHT22;22158;59.280;17.806;2024-02-14T05:24:07;-1.80;99.90
35668;DHT22;22158;59.280;17.806;2024-02-14T05:26:33;-1.80;99.90
35668;DHT22;22158;59.280;17.806;2024-02-14T05:28:59;-1.80;99.90
35668;DHT22;22158;59.280;17.806;2024-02-14T05:31:28;-1.80;99.90
35668;DHT22;22158;59.280;17.806;2024-02-14T05:33:54;-1.80;99.90
35668;DHT22;22158;59.280;17.806;2024-02-14T05:36:20;-1.80;99.90
35668;DHT22;22158;59.280;17.806;2024-02-14T05:38:46;-1.80;99.90
35668;DHT22;22158;59.280;17.806;2024-02-14T05:41:11;-1.80;99.90
35668;DHT22;22158;59.280;17.806;2024-02-14T05:43:38;-1.80;99.90
35668;DHT22;22158;59.280;17.806;2024-02-14T05:46:04;-1.80;99.90
35668;DHT22;22158;59.280;17.806;2024-02-14T05:48:29;-1.80;99.90
35668;DHT22;22158;59.280;17.806;2024-02-14T05:50:55;-1.80;99.90
35668;DHT22;22158;59.280;17.806;2024-02-14T05:53:21;-1.70;99.90
35668;DHT22;22158;59.280;17.806;2024-02-14T05:55:46;-1.70;99.90
35668;DHT22;22158;59.280;17.806;2024-02-14T05:58:12;-1.70;99.90
35668;DHT22;22158;59.280;17.806;2024-02-14T06:00:38;-1.70;99.90
35668;DHT22;22158;59.280;17.806;2024-02-14T06:03:04;-1.70;99.90
35668;DHT22;22158;59.280;17.806;2024-02-14T06:05:31;-1.70;99.90
35668;DHT22;22158;59.280;17.806;2024-02-14T06:07:57;-1.70;99.90
35668;DHT22;22158;59.280;17.806;2024-02-14T06:10:23;-1.70;99.90
35668;DHT22;22158;59.280;17.806;2024-02-14T06:12:50;-1.70;99.90
35668;DHT22;22158;59.280;17.806;2024-02-14T06:15:16;-1.70;99.90
35668;DHT22;22158;59.280;17.806;2024-02-14T06:17:42;-1.80;99.90
35668;DHT22;22158;59.280;17.806;2024-02-14T06:20:08;-1.70;99.90
35668;DHT22;22158;59.280;17.806;2024-02-14T06:22:34;-1.70;99.90
35668;DHT22;22158;59.280;17.806;2024-02-14T06:25:00;-1.70;99.90
35668;DHT22;22158;59.280;17.806;2024-02-14T06:27:26;-1.70;99.90
35668;DHT22;22158;59.280;17.806;2024-02-14T06:29:52;-1.60;99.90
35668;DHT22;22158;59.280;17.806;2024-02-14T06:32:19;-1.60;99.90
35668;DHT22;22158;59.280;17.806;2024-02-14T06:34:44;-1.60;99.90
35668;DHT22;22158;59.280;17.806;2024-02-14T06:37:10;-1.50;99.90
35668;DHT22;22158;59.280;17.806;2024-02-14T06:39:36;-1.50;99.90
35668;DHT22;22158;59.280;17.806;2024-02-14T06:42:01;-1.40;99.90
35668;DHT22;22158;59.280;17.806;2024-02-14T06:44:27;-1.40;99.90
35668;DHT22;22158;59.280;17.806;2024-02-14T06:46:52;-1.40;99.90
35668;DHT22;22158;59.280;17.806;2024-02-14T06:49:18;-1.30;99.90
35668;DHT22;22158;59.280;17.806;2024-02-14T06:51:44;-1.30;99.90
35668;DHT22;22158;59.280;17.806;2024-02-14T06:54:10;-1.20;99.90
35668;DHT22;22158;59.280;17.806;2024-02-14T06:56:38;-1.20;99.90
35668;DHT22;22158;59.280;17.806;2024-02-14T06:59:03;-1.20;99.90
35668;DHT22;22158;59.280;17.806;2024-02-14T07:01:30;-1.10;99.90
35668;DHT22;22158;59.280;17.806;2024-02-14T07:03:56;-1.10;99.90
35668;DHT22;22158;59.280;17.806;2024-02-14T07:06:22;-1.10;99.90
35668;DHT22;22158;59.280;17.806;2024-02-14T07:08:48;-1.20;99.90
35668;DHT22;22158;59.280;17.806;2024-02-14T07:11:14;-1.10;99.90
35668;DHT22;22158;59.280;17.806;2024-02-14T07:13:41;-1.10;99.90
35668;DHT22;22158;59.280;17.806;2024-02-14T07:16:07;-1.00;99.90
35668;DHT22;22158;59.280;17.806;2024-02-14T07:18:34;-1.00;99.90
35668;DHT22;22158;59.280;17.806;2024-02-14T07:20:59;-0.90;99.90
35668;DHT22;22158;59.280;17.806;2024-02-14T07:23:25;-0.90;99.90
35668;DHT22;22158;59.280;17.806;2024-02-14T07:25:51;-0.90;99.90
35668;DHT22;22158;59.280;17.806;2024-02-14T07:28:17;-0.90;99.90
35668;DHT22;22158;59.280;17.806;2024-02-14T07:30:43;-0.90;99.90
35668;DHT22;22158;59.280;17.806;2024-02-14T07:33:09;-0.80;99.90
35668;DHT22;22158;59.280;17.806;2024-02-14T07:35:37;-0.70;99.90
35668;DHT22;22158;59.280;17.806;2024-02-14T07:38:02;-0.80;99.90
35668;DHT22;22158;59.280;17.806;2024-02-14T07:40:28;-0.80;99.90
35668;DHT22;22158;59.280;17.806;2024-02-14T07:42:57;-0.80;99.90
35668;DHT22;22158;59.280;17.806;2024-02-14T07:45:22;-0.80;99.90
35668;DHT22;22158;59.280;17.806;2024-02-14T07:47:51;-0.70;99.90
35668;DHT22;22158;59.280;17.806;2024-02-14T07:50:17;-0.70;99.90
35668;DHT22;22158;59.280;17.806;2024-02-14T07:52:44;-0.70;99.90
35668;DHT22;22158;59.280;17.806;2024-02-14T07:55:10;-0.70;99.90
35668;DHT22;22158;59.280;17.806;2024-02-14T07:57:38;-0.70;99.90
35668;DHT22;22158;59.280;17.806;2024-02-14T08:00:07;-0.70;99.90
35668;DHT22;22158;59.280;17.806;2024-02-14T08:02:34;-0.70;99.90
35668;DHT22;22158;59.280;17.806;2024-02-14T08:05:00;-0.60;99.90
35668;DHT22;22158;59.280;17.806;2024-02-14T08:07:26;-0.60;99.90
35668;DHT22;22158;59.280;17.806;2024-02-14T08:09:52;-0.60;99.90
35668;DHT22;22158;59.280;17.806;2024-02-14T08:12:18;-0.60;99.90
35668;DHT22;22158;59.280;17.806;2024-02-14T08:14:44;-0.50;99.90
35668;DHT22;22158;59.280;17.806;2024-02-14T08:17:10;-0.50;99.90
35668;DHT22;22158;59.280;17.806;2024-02-14T08:19:36;-0.40;99.90
35668;DHT22;22158;59.280;17.806;2024-02-14T08:22:01;-0.30;99.90
35668;DHT22;22158;59.280;17.806;2024-02-14T08:24:28;-0.30;99.90
35668;DHT22;22158;59.280;17.806;2024-02-14T08:26:54;-0.20;99.90
35668;DHT22;22158;59.280;17.806;2024-02-14T08:29:20;-0.20;99.90
35668;DHT22;22158;59.280;17.806;2024-02-14T08:31:46;-0.10;99.90
35668;DHT22;22158;59.280;17.806;2024-02-14T08:34:13;-0.10;99.90
35668;DHT22;22158;59.280;17.806;2024-02-14T08:36:39;0.00;99.90
35668;DHT22;22158;59.280;17.806;2024-02-14T08:39:07;0.00;99.90
35668;DHT22;22158;59.280;17.806;2024-02-14T08:41:33;0.00;99.90
35668;DHT22;22158;59.280;17.806;2024-02-14T08:43:59;0.10;99.90
35668;DHT22;22158;59.280;17.806;2024-02-14T08:46:24;0.20;99.90
35668;DHT22;22158;59.280;17.806;2024-02-14T08:48:51;0.20;99.90
35668;DHT22;22158;59.280;17.806;2024-02-14T08:51:17;0.20;99.90
35668;DHT22;22158;59.280;17.806;2024-02-14T08:53:45;0.20;99.90
35668;DHT22;22158;59.280;17.806;2024-02-14T08:56:12;0.30;99.90
35668;DHT22;22158;59.280;17.806;2024-02-14T08:58:38;0.30;99.90
35668;DHT22;22158;59.280;17.806;2024-02-14T09:01:03;0.40;99.90
35668;DHT22;22158;59.280;17.806;2024-02-14T09:03:29;0.50;99.90
35668;DHT22;22158;59.280;17.806;2024-02-14T09:05:57;0.70;99.90
35668;DHT22;22158;59.280;17.806;2024-02-14T09:08:23;0.70;99.90
35668;DHT22;22158;59.280;17.806;2024-02-14T09:10:50;0.80;99.90
35668;DHT22;22158;59.280;17.806;2024-02-14T09:13:16;0.90;99.90
35668;DHT22;22158;59.280;17.806;2024-02-14T09:15:43;1.00;99.90
35668;DHT22;22158;59.280;17.806;2024-02-14T09:18:09;1.10;99.90
35668;DHT22;22158;59.280;17.806;2024-02-14T09:20:34;1.20;99.90
35668;DHT22;22158;59.280;17.806;2024-02-14T09:23:00;1.20;99.90
35668;DHT22;22158;59.280;17.806;2024-02-14T09:25:26;1.20;99.90
35668;DHT22;22158;59.280;17.806;2024-02-14T09:27:52;1.30;99.90
35668;DHT22;22158;59.280;17.806;2024-02-14T09:30:18;1.30;99.90
35668;DHT22;22158;59.280;17.806;2024-02-14T09:32:45;1.40;99.90
35668;DHT22;22158;59.280;17.806;2024-02-14T09:35:10;1.40;99.90
35668;DHT22;22158;59.280;17.806;2024-02-14T09:37:36;1.40;99.90
35668;DHT22;22158;59.280;17.806;2024-02-14T09:40:06;1.50;99.90
35668;DHT22;22158;59.280;17.806;2024-02-14T09:42:38;1.50;99.90
35668;DHT22;22158;59.280;17.806;2024-02-14T09:45:09;1.60;99.90
35668;DHT22;22158;59.280;17.806;2024-02-14T09:47:35;1.60;99.90
35668;DHT22;22158;59.280;17.806;2024-02-14T09:50:03;1.60;99.90
35668;DHT22;22158;59.280;17.806;2024-02-14T09:52:32;1.60;99.90
35668;DHT22;22158;59.280;17.806;2024-02-14T09:54:58;1.60;99.90
35668;DHT22;22158;59.280;17.806;2024-02-14T09:57:25;1.60;99.90
35668;DHT22;22158;59.280;17.806;2024-02-14T09:59:53;1.50;99.90
35668;DHT22;22158;59.280;17.806;2024-02-14T10:02:19;1.60;99.90
35668;DHT22;22158;59.280;17.806;2024-02-14T10:04:45;1.70;99.90
35668;DHT22;22158;59.280;17.806;2024-02-14T10:07:11;1.80;99.90
35668;DHT22;22158;59.280;17.806;2024-02-14T10:09:43;1.90;99.90
35668;DHT22;22158;59.280;17.806;2024-02-14T10:12:09;1.90;99.90
35668;DHT22;22158;59.280;17.806;2024-02-14T10:14:36;2.00;99.90
35668;DHT22;22158;59.280;17.806;2024-02-14T10:17:05;2.00;99.90
35668;DHT22;22158;59.280;17.806;2024-02-14T10:19:31;2.10;99.90
35668;DHT22;22158;59.280;17.806;2024-02-14T10:21:58;2.10;99.90
35668;DHT22;22158;59.280;17.806;2024-02-14T10:24:28;2.20;99.90
35668;DHT22;22158;59.280;17.806;2024-02-14T10:26:54;2.20;99.90
35668;DHT22;22158;59.280;17.806;2024-02-14T10:29:23;2.30;99.90
35668;DHT22;22158;59.280;17.806;2024-02-14T10:31:49;2.30;99.90
35668;DHT22;22158;59.280;17.806;2024-02-14T10:34:16;2.40;99.90
35668;DHT22;22158;59.280;17.806;2024-02-14T10:36:43;2.40;99.90
35668;DHT22;22158;59.280;17.806;2024-02-14T10:39:11;2.40;99.90
35668;DHT22;22158;59.280;17.806;2024-02-14T10:41:36;2.50;99.90
35668;DHT22;22158;59.280;17.806;2024-02-14T10:44:03;2.50;99.90
35668;DHT22;22158;59.280;17.806;2024-02-14T10:46:36;2.60;99.90
35668;DHT22;22158;59.280;17.806;2024-02-14T10:49:03;2.70;99.90
35668;DHT22;22158;59.280;17.806;2024-02-14T10:51:34;2.70;99.90
35668;DHT22;22158;59.280;17.806;2024-02-14T10:54:01;2.80;99.90
35668;DHT22;22158;59.280;17.806;2024-02-14T10:56:29;2.80;99.90
35668;DHT22;22158;59.280;17.806;2024-02-14T10:58:58;2.90;99.90
35668;DHT22;22158;59.280;17.806;2024-02-14T11:01:27;2.90;99.90
35668;DHT22;22158;59.280;17.806;2024-02-14T11:03:59;3.00;99.90
35668;DHT22;22158;59.280;17.806;2024-02-14T11:06:25;3.00;99.90
35668;DHT22;22158;59.280;17.806;2024-02-14T11:09:01;3.10;99.90
35668;DHT22;22158;59.280;17.806;2024-02-14T11:11:30;3.20;99.90
35668;DHT22;22158;59.280;17.806;2024-02-14T11:13:57;3.10;99.90
35668;DHT22;22158;59.280;17.806;2024-02-14T11:16:25;3.10;99.90
35668;DHT22;22158;59.280;17.806;2024-02-14T11:18:54;3.00;99.90
35668;DHT22;22158;59.280;17.806;2024-02-14T11:21:20;3.00;99.90
35668;DHT22;22158;59.280;17.806;2024-02-14T11:23:55;3.10;99.90
35668;DHT22;22158;59.280;17.806;2024-02-14T11:26:20;3.10;99.90
35668;DHT22;22158;59.280;17.806;2024-02-14T11:28:48;3.10;99.90
35668;DHT22;22158;59.280;17.806;2024-02-14T11:31:17;3.20;99.90
35668;DHT22;22158;59.280;17.806;2024-02-14T11:33:43;3.30;99.90
35668;DHT22;22158;59.280;17.806;2024-02-14T11:36:14;3.30;99.90
35668;DHT22;22158;59.280;17.806;2024-02-14T11:38:41;3.40;99.90
35668;DHT22;22158;59.280;17.806;2024-02-14T11:41:07;3.50;99.90
35668;DHT22;22158;59.280;17.806;2024-02-14T11:43:35;3.50;99.90
35668;DHT22;22158;59.280;17.806;2024-02-14T11:46:00;3.60;99.90
35668;DHT22;22158;59.280;17.806;2024-02-14T11:48:26;3.70;99.90
35668;DHT22;22158;59.280;17.806;2024-02-14T11:50:54;3.70;99.90
35668;DHT22;22158;59.280;17.806;2024-02-14T11:53:20;3.70;99.90
35668;DHT22;22158;59.280;17.806;2024-02-14T11:55:46;3.80;99.90
35668;DHT22;22158;59.280;17.806;2024-02-14T11:58:13;3.70;99.90
35668;DHT22;22158;59.280;17.806;2024-02-14T12:00:43;3.70;99.90
35668;DHT22;22158;59.280;17.806;2024-02-14T12:03:15;3.70;99.90
35668;DHT22;22158;59.280;17.806;2024-02-14T12:05:42;3.80;99.90
35668;DHT22;22158;59.280;17.806;2024-02-14T12:08:11;3.80;99.90
35668;DHT22;22158;59.280;17.806;2024-02-14T12:10:37;3.70;99.90
35668;DHT22;22158;59.280;17.806;2024-02-14T12:13:10;3.60;99.90
35668;DHT22;22158;59.280;17.806;2024-02-14T12:15:41;3.60;99.90
35668;DHT22;22158;59.280;17.806;2024-02-14T12:18:08;3.50;99.90
35668;DHT22;22158;59.280;17.806;2024-02-14T12:20:34;3.50;99.90
35668;DHT22;22158;59.280;17.806;2024-02-14T12:23:02;3.50;99.90
35668;DHT22;22158;59.280;17.806;2024-02-14T12:25:29;3.50;99.90
35668;DHT22;22158;59.280;17.806;2024-02-14T12:27:56;3.50;99.90
35668;DHT22;22158;59.280;17.806;2024-02-14T12:30:22;3.50;99.90
35668;DHT22;22158;59.280;17.806;2024-02-14T12:33:00;3.50;99.90
35668;DHT22;22158;59.280;17.806;2024-02-14T12:35:34;3.50;99.90
35668;DHT22;22158;59.280;17.806;2024-02-14T12:38:01;3.40;99.90
35668;DHT22;22158;59.280;17.806;2024-02-14T12:40:28;3.40;99.90
35668;DHT22;22158;59.280;17.806;2024-02-14T12:42:54;3.40;99.90
35668;DHT22;22158;59.280;17.806;2024-02-14T12:45:20;3.30;99.90
35668;DHT22;22158;59.280;17.806;2024-02-14T12:47:46;3.30;99.90
35668;DHT22;22158;59.280;17.806;2024-02-14T12:50:11;3.30;99.90
35668;DHT22;22158;59.280;17.806;2024-02-14T12:52:37;3.30;99.90
35668;DHT22;22158;59.280;17.806;2024-02-14T12:55:03;3.30;99.90
35668;DHT22;22158;59.280;17.806;2024-02-14T12:57:28;3.30;99.90
35668;DHT22;22158;59.280;17.806;2024-02-14T12:59:54;3.30;99.90
35668;DHT22;22158;59.280;17.806;2024-02-14T13:02:20;3.30;99.90
35668;DHT22;22158;59.280;17.806;2024-02-14T13:04:46;3.40;99.90
35668;DHT22;22158;59.280;17.806;2024-02-14T13:07:12;3.40;99.90
35668;DHT22;22158;59.280;17.806;2024-02-14T13:09:38;3.40;99.90
35668;DHT22;22158;59.280;17.806;2024-02-14T13:12:04;3.40;99.90
35668;DHT22;22158;59.280;17.806;2024-02-14T13:14:32;3.30;99.90
35668;DHT22;22158;59.280;17.806;2024-02-14T13:16:58;3.40;99.90
35668;DHT22;22158;59.280;17.806;2024-02-14T13:19:24;3.30;99.90
35668;DHT22;22158;59.280;17.806;2024-02-14T13:21:49;3.30;99.90
35668;DHT22;22158;59.280;17.806;2024-02-14T13:24:15;3.30;99.90
35668;DHT22;22158;59.280;17.806;2024-02-14T13:26:41;3.20;99.90
35668;DHT22;22158;59.280;17.806;2024-02-14T13:29:06;3.20;99.90
35668;DHT22;22158;59.280;17.806;2024-02-14T13:31:32;3.20;99.90
35668;DHT22;22158;59.280;17.806;2024-02-14T13:33:58;3.20;99.90
35668;DHT22;22158;59.280;17.806;2024-02-14T13:36:24;3.20;99.90
35668;DHT22;22158;59.280;17.806;2024-02-14T13:38:49;3.20;99.90
35668;DHT22;22158;59.280;17.806;2024-02-14T13:41:15;3.20;99.90
35668;DHT22;22158;59.280;17.806;2024-02-14T13:43:41;3.10;99.90
35668;DHT22;22158;59.280;17.806;2024-02-14T13:46:07;3.10;99.90
35668;DHT22;22158;59.280;17.806;2024-02-14T13:48:35;2.90;99.90
35668;DHT22;22158;59.280;17.806;2024-02-14T13:51:00;2.90;99.90
35668;DHT22;22158;59.280;17.806;2024-02-14T13:53:27;2.70;99.90
35668;DHT22;22158;59.280;17.806;2024-02-14T13:55:53;2.70;99.90
35668;DHT22;22158;59.280;17.806;2024-02-14T13:58:19;2.70;99.90
35668;DHT22;22158;59.280;17.806;2024-02-14T14:00:45;2.60;99.90
35668;DHT22;22158;59.280;17.806;2024-02-14T14:03:10;2.60;99.90
35668;DHT22;22158;59.280;17.806;2024-02-14T14:05:37;2.60;99.90
35668;DHT22;22158;59.280;17.806;2024-02-14T14:08:03;2.50;99.90
35668;DHT22;22158;59.280;17.806;2024-02-14T14:10:29;2.50;99.90
35668;DHT22;22158;59.280;17.806;2024-02-14T14:12:55;2.40;99.90
35668;DHT22;22158;59.280;17.806;2024-02-14T14:15:21;2.40;99.90
35668;DHT22;22158;59.280;17.806;2024-02-14T14:17:51;2.40;99.90
35668;DHT22;22158;59.280;17.806;2024-02-14T14:20:17;2.40;99.90
35668;DHT22;22158;59.280;17.806;2024-02-14T14:22:43;2.20;99.90
35668;DHT22;22158;59.280;17.806;2024-02-14T14:25:09;2.20;99.90
35668;DHT22;22158;59.280;17.806;2024-02-14T14:27:35;2.20;99.90
35668;DHT22;22158;59.280;17.806;2024-02-14T14:30:01;2.20;99.90
35668;DHT22;22158;59.280;17.806;2024-02-14T14:32:27;2.20;99.90
35668;DHT22;22158;59.280;17.806;2024-02-14T14:34:52;2.30;99.90
35668;DHT22;22158;59.280;17.806;2024-02-14T14:37:18;2.20;99.90
35668;DHT22;22158;59.280;17.806;2024-02-14T14:39:43;2.20;99.90
35668;DHT22;22158;59.280;17.806;2024-02-14T14:42:10;2.20;99.90
35668;DHT22;22158;59.280;17.806;2024-02-14T14:44:36;2.20;99.90
35668;DHT22;22158;59.280;17.806;2024-02-14T14:47:02;2.20;99.90
35668;DHT22;22158;59.280;17.806;2024-02-14T14:49:28;2.00;99.90
35668;DHT22;22158;59.280;17.806;2024-02-14T14:51:53;2.00;99.90
35668;DHT22;22158;59.280;17.806;2024-02-14T14:54:19;2.00;99.90
35668;DHT22;22158;59.280;17.806;2024-02-14T14:56:45;2.00;99.90
35668;DHT22;22158;59.280;17.806;2024-02-14T14:59:11;2.00;99.90
35668;DHT22;22158;59.280;17.806;2024-02-14T15:01:37;2.00;99.90
35668;DHT22;22158;59.280;17.806;2024-02-14T15:04:03;2.00;99.90
35668;DHT22;22158;59.280;17.806;2024-02-14T15:06:29;2.00;99.90
35668;DHT22;22158;59.280;17.806;2024-02-14T15:08:55;2.00;99.90
35668;DHT22;22158;59.280;17.806;2024-02-14T15:11:21;1.90;99.90
35668;DHT22;22158;59.280;17.806;2024-02-14T15:13:47;1.90;99.90
35668;DHT22;22158;59.280;17.806;2024-02-14T15:16:13;2.00;99.90
35668;DHT22;22158;59.280;17.806;2024-02-14T15:18:40;1.90;99.90